Time;durP1;ratioP1;P1;durP2;ratioP2;P2;SDS_P1;SDS_P2;PMS_P1;PMS_P2;Temp;Humidity;BMP_temperature;BMP_pressure;BME280_temperature;BME280_humidity;BME280_pressure;Samples;Min_cycle;Max_cycle;Signal;HPM_P1;HPM_P2
2022/11/01 00:01:55;;;;;;;15.90;4.32;;;18.60;99.80;;;;;;5010148;28;20427;-73
2022/11/01 00:04:23;;;;;;;15.27;4.25;;;18.60;99.90;;;;;;5008308;28;20026;-73
2022/11/01 00:06:52;;;;;;;17.25;4.30;;;18.50;99.90;;;;;;5002486;28;20444;-74
2022/11/01 00:09:17;;;;;;;15.25;4.65;;;18.60;99.90;;;;;;5005047;28;20022;-72
2022/11/01 00:11:43;;;;;;;13.23;4.28;;;18.50;99.90;;;;;;5006363;28;20041;-73
2022/11/01 00:14:16;;;;;;;10.18;4.07;;;18.50;99.90;;;;;;5023636;28;20134;-73
2022/11/01 00:16:42;;;;;;;10.60;3.85;;;18.60;99.90;;;;;;5007743;28;20022;-74
2022/11/01 00:19:10;;;;;;;8.13;3.80;;;18.60;99.90;;;;;;5008275;28;20069;-74
2022/11/01 00:21:36;;;;;;;11.32;4.43;;;18.50;99.90;;;;;;5008966;28;20037;-73
2022/11/01 00:24:02;;;;;;;15.07;4.10;;;18.50;99.90;;;;;;5013097;28;20037;-70
2022/11/01 00:26:28;;;;;;;8.48;4.10;;;18.40;99.90;;;;;;5018858;28;20029;-71
2022/11/01 00:28:54;;;;;;;11.90;4.07;;;18.40;99.90;;;;;;5016490;28;20101;-71
2022/11/01 00:31:20;;;;;;;15.45;5.38;;;18.40;99.90;;;;;;5009100;28;20427;-72
2022/11/01 00:33:46;;;;;;;14.38;4.45;;;18.30;99.90;;;;;;5007942;28;20036;-72
2022/11/01 00:36:12;;;;;;;11.25;4.43;;;18.30;99.90;;;;;;5004879;28;20041;-73
2022/11/01 00:38:38;;;;;;;17.38;4.38;;;18.30;99.90;;;;;;5007567;28;20025;-73
2022/11/01 00:41:04;;;;;;;11.00;4.40;;;18.30;99.90;;;;;;5023344;28;20485;-73
2022/11/01 00:43:32;;;;;;;12.18;4.35;;;18.30;99.90;;;;;;5005249;28;20448;-71
2022/11/01 00:45:58;;;;;;;12.70;4.00;;;18.20;99.90;;;;;;5009192;28;20124;-71
2022/11/01 00:48:24;;;;;;;10.55;3.90;;;18.20;99.90;;;;;;5006746;28;20022;-72
2022/11/01 00:50:49;;;;;;;15.98;4.47;;;18.30;99.90;;;;;;5007036;28;20410;-72
2022/11/01 00:53:15;;;;;;;10.38;4.07;;;18.20;99.90;;;;;;5003951;28;20029;-72
2022/11/01 00:55:41;;;;;;;12.73;4.05;;;18.20;99.90;;;;;;5011845;28;20022;-71
2022/11/01 00:58:07;;;;;;;11.75;3.88;;;18.30;99.90;;;;;;5007378;28;20037;-72
2022/11/01 01:00:36;;;;;;;8.93;4.35;;;18.30;99.90;;;;;;5008134;28;20034;-71
2022/11/01 01:03:05;;;;;;;19.63;4.07;;;18.30;99.90;;;;;;5008135;28;20018;-72
2022/11/01 01:05:32;;;;;;;9.05;4.40;;;18.30;99.90;;;;;;5004134;28;20025;-71
2022/11/01 01:07:59;;;;;;;9.07;3.90;;;18.40;99.90;;;;;;5010018;28;20026;-74
2022/11/01 01:10:25;;;;;;;16.98;4.07;;;18.40;99.90;;;;;;5006348;28;20085;-74
2022/11/01 01:12:51;;;;;;;11.35;4.03;;;18.30;99.90;;;;;;5004731;28;20359;-72
2022/11/01 01:15:17;;;;;;;11.57;4.30;;;18.30;99.90;;;;;;5001264;28;20033;-72
2022/11/01 01:17:43;;;;;;;12.15;3.80;;;18.30;99.90;;;;;;5003028;28;20057;-73
2022/11/01 01:20:09;;;;;;;14.00;3.63;;;18.30;99.90;;;;;;5019034;28;20030;-71
2022/11/01 01:22:35;;;;;;;10.63;4.60;;;18.20;99.90;;;;;;5005160;28;20022;-74
2022/11/01 01:25:01;;;;;;;12.63;4.53;;;18.20;99.90;;;;;;5024498;28;20037;-74
2022/11/01 01:27:26;;;;;;;15.98;3.83;;;18.20;99.90;;;;;;5006766;28;20018;-75
2022/11/01 01:29:52;;;;;;;11.68;4.85;;;18.10;99.90;;;;;;5004737;28;20021;-74
2022/11/01 01:32:20;;;;;;;12.35;4.05;;;18.10;99.90;;;;;;4999476;28;20035;-73
2022/11/01 01:34:46;;;;;;;10.52;4.32;;;18.00;99.90;;;;;;5010834;28;20069;-74
2022/11/01 01:37:15;;;;;;;12.88;4.57;;;18.00;99.90;;;;;;5006811;28;20034;-73
2022/11/01 01:39:42;;;;;;;18.02;5.03;;;18.00;99.90;;;;;;5007124;28;20017;-73
2022/11/01 01:42:28;;;;;;;12.77;4.97;;;17.90;99.90;;;;;;5010616;28;20038;-73
2022/11/01 01:44:54;;;;;;;10.95;4.70;;;18.00;99.90;;;;;;5008236;28;20478;-75
2022/11/01 01:47:31;;;;;;;21.58;6.30;;;18.00;99.90;;;;;;5009133;28;20034;-74
2022/11/01 01:50:09;;;;;;;14.35;5.43;;;17.90;99.90;;;;;;5001469;28;20049;-74
2022/11/01 01:52:48;;;;;;;19.70;5.90;;;17.90;99.90;;;;;;5003150;28;20088;-74
2022/11/01 01:55:19;;;;;;;19.27;5.97;;;17.80;99.90;;;;;;4999090;28;20034;-76
2022/11/01 01:57:45;;;;;;;17.40;6.18;;;17.80;99.90;;;;;;5002443;28;20022;-74
2022/11/01 02:00:12;;;;;;;16.50;5.63;;;17.70;99.90;;;;;;5003203;28;20032;-73
2022/11/01 02:02:39;;;;;;;17.10;6.45;;;17.70;99.90;;;;;;5016553;28;20056;-72
2022/11/01 02:05:14;;;;;;;17.50;5.97;;;17.70;99.90;;;;;;5004577;28;20105;-73
2022/11/01 02:07:40;;;;;;;18.02;5.75;;;17.70;99.90;;;;;;5002286;28;20045;-74
2022/11/01 02:10:07;;;;;;;22.42;6.10;;;17.70;99.90;;;;;;5007904;28;20053;-76
2022/11/01 02:12:37;;;;;;;14.02;5.43;;;17.70;99.90;;;;;;4998459;28;20034;-74
2022/11/01 02:15:12;;;;;;;17.00;5.40;;;17.70;99.90;;;;;;5003520;28;20049;-73
2022/11/01 02:17:53;;;;;;;11.40;4.72;;;17.70;99.90;;;;;;5016513;28;20510;-73
2022/11/01 02:21:00;;;;;;;21.92;5.88;;;17.70;99.90;;;;;;4999369;28;20032;-74
2022/11/01 02:23:34;;;;;;;20.35;5.30;;;17.70;99.90;;;;;;4982557;28;20060;-74
2022/11/01 02:26:18;;;;;;;13.55;5.53;;;17.70;99.90;;;;;;5016972;28;20045;-74
2022/11/01 02:28:59;;;;;;;12.50;4.05;;;17.70;99.90;;;;;;5006033;28;20690;-74
2022/11/01 02:31:46;;;;;;;12.90;4.75;;;17.70;99.90;;;;;;5018896;28;20045;-73
2022/11/01 02:34:20;;;;;;;15.98;5.15;;;17.60;99.90;;;;;;5007221;28;20121;-72
2022/11/01 02:36:56;;;;;;;13.77;4.70;;;17.60;99.90;;;;;;5005222;28;20481;-73
2022/11/01 02:39:30;;;;;;;9.55;4.40;;;17.60;99.90;;;;;;5006079;28;20069;-76
2022/11/01 02:42:33;;;;;;;14.25;4.15;;;17.60;99.90;;;;;;5015848;28;20537;-72
2022/11/01 02:45:09;;;;;;;12.00;4.68;;;17.60;99.90;;;;;;4984860;28;20053;-72
2022/11/01 02:47:36;;;;;;;9.38;4.32;;;17.60;99.90;;;;;;5015480;28;20039;-73
2022/11/01 02:50:08;;;;;;;11.00;4.35;;;17.50;99.90;;;;;;5005244;28;20053;-72
2022/11/01 02:52:39;;;;;;;11.13;4.35;;;17.50;99.90;;;;;;5006262;28;20022;-72
2022/11/01 02:55:28;;;;;;;11.82;4.43;;;17.50;99.90;;;;;;5004750;28;20031;-73
2022/11/01 02:58:05;;;;;;;17.48;4.60;;;17.50;99.90;;;;;;5004500;28;20329;-73
2022/11/01 03:00:34;;;;;;;10.75;4.32;;;17.50;99.90;;;;;;5006582;28;20096;-72
2022/11/01 03:03:23;;;;;;;11.00;4.88;;;17.60;99.90;;;;;;5000625;28;20037;-73
2022/11/01 03:06:04;;;;;;;16.60;4.40;;;17.50;99.90;;;;;;5015213;28;20018;-71
2022/11/01 03:08:44;;;;;;;13.70;4.53;;;17.50;99.90;;;;;;5005516;28;20033;-72
2022/11/01 03:11:19;;;;;;;9.85;3.92;;;17.50;99.90;;;;;;5005939;28;20100;-72
2022/11/01 03:14:17;;;;;;;17.95;4.40;;;17.50;99.90;;;;;;5020057;28;20115;-72
2022/11/01 03:16:46;;;;;;;10.73;3.92;;;17.40;99.90;;;;;;4977174;28;20034;-71
2022/11/01 03:19:23;;;;;;;9.50;3.85;;;17.50;99.90;;;;;;5000981;28;20026;-71
2022/11/01 03:22:12;;;;;;;10.10;4.18;;;17.60;99.90;;;;;;5002388;28;20045;-71
2022/11/01 03:24:43;;;;;;;8.45;4.32;;;17.60;99.90;;;;;;5020703;28;20502;-71
2022/11/01 03:27:31;;;;;;;8.15;3.47;;;17.60;99.90;;;;;;5021617;28;20030;-72
2022/11/01 03:30:15;;;;;;;8.85;3.47;;;17.60;99.90;;;;;;5021983;28;20034;-71
2022/11/01 03:32:45;;;;;;;8.80;3.85;;;17.60;99.90;;;;;;5017856;28;20539;-71
2022/11/01 03:35:22;;;;;;;8.98;3.75;;;17.50;99.90;;;;;;4999826;28;20065;-71
2022/11/01 03:37:51;;;;;;;14.57;4.18;;;17.60;99.90;;;;;;5005039;28;20045;-72
2022/11/01 03:40:20;;;;;;;8.82;3.90;;;17.60;99.90;;;;;;5007882;28;20038;-71
2022/11/01 03:42:52;;;;;;;14.30;3.92;;;17.60;99.90;;;;;;5007967;28;20041;-72
2022/11/01 03:45:23;;;;;;;10.93;4.00;;;17.60;99.90;;;;;;5008132;28;20443;-72
2022/11/01 03:47:49;;;;;;;10.48;4.13;;;17.60;99.90;;;;;;5024101;28;20021;-72
2022/11/01 03:50:21;;;;;;;14.98;3.85;;;17.60;99.90;;;;;;5010275;28;20037;-71
2022/11/01 03:52:49;;;;;;;8.38;4.15;;;17.60;99.90;;;;;;5003897;28;20030;-71
2022/11/01 03:55:17;;;;;;;11.57;3.90;;;17.50;99.90;;;;;;5005137;28;20022;-72
2022/11/01 03:57:52;;;;;;;8.13;3.65;;;17.60;99.90;;;;;;5008388;28;20047;-71
2022/11/01 04:00:26;;;;;;;7.65;3.20;;;17.60;99.90;;;;;;5006089;28;20089;-71
2022/11/01 04:02:53;;;;;;;10.90;4.07;;;17.60;99.90;;;;;;5020637;28;20095;-72
2022/11/01 04:05:19;;;;;;;7.78;3.70;;;17.60;99.90;;;;;;5005646;28;20033;-71
2022/11/01 04:07:45;;;;;;;10.07;3.72;;;17.60;99.90;;;;;;5003676;28;20084;-73
2022/11/01 04:10:12;;;;;;;8.02;3.78;;;17.60;99.90;;;;;;5008042;28;20030;-72
2022/11/01 04:12:38;;;;;;;6.13;3.30;;;17.60;99.90;;;;;;5003205;28;20026;-72
2022/11/01 04:21:20;;;;;;;12.38;4.55;;;17.50;99.90;;;;;;4996964;28;20048;-71
2022/11/01 04:23:46;;;;;;;11.73;3.78;;;17.40;99.90;;;;;;5004127;28;20065;-71
2022/11/01 04:26:20;;;;;;;9.35;3.13;;;17.50;99.90;;;;;;5007251;28;20021;-72
2022/11/01 04:28:58;;;;;;;13.02;3.80;;;17.40;99.90;;;;;;5003028;28;20116;-73
2022/11/01 04:31:32;;;;;;;9.55;2.95;;;17.40;99.90;;;;;;5008030;28;20018;-72
2022/11/01 04:33:59;;;;;;;6.72;3.22;;;17.40;99.90;;;;;;5017036;28;20053;-71
2022/11/01 04:36:25;;;;;;;10.05;3.33;;;17.30;99.90;;;;;;5007527;28;20468;-72
2022/11/01 04:38:55;;;;;;;11.07;3.15;;;17.30;99.90;;;;;;5002934;28;20026;-72
2022/11/01 04:41:26;;;;;;;6.63;3.75;;;17.30;99.90;;;;;;5007512;28;20596;-71
2022/11/01 04:43:55;;;;;;;6.30;2.85;;;17.30;99.90;;;;;;5020304;28;20045;-71
2022/11/01 04:46:21;;;;;;;11.57;3.17;;;17.30;99.90;;;;;;5002859;28;20037;-71
2022/11/01 04:48:47;;;;;;;6.45;2.63;;;17.40;99.90;;;;;;5005306;28;20018;-76
2022/11/01 04:51:13;;;;;;;3.90;2.92;;;17.50;99.90;;;;;;5004126;28;20108;-74
2022/11/01 04:53:39;;;;;;;9.27;3.28;;;17.60;99.90;;;;;;5006511;28;20034;-74
2022/11/01 04:56:07;;;;;;;8.38;3.22;;;17.60;99.90;;;;;;5002939;28;20037;-75
2022/11/01 04:58:35;;;;;;;8.45;3.03;;;17.60;99.90;;;;;;5002715;28;20041;-74
2022/11/01 05:01:05;;;;;;;9.00;2.90;;;17.70;99.90;;;;;;5000740;28;20061;-75
2022/11/01 05:03:31;;;;;;;4.57;2.38;;;17.70;99.90;;;;;;5002703;28;20037;-74
2022/11/01 05:06:00;;;;;;;9.95;2.65;;;17.70;99.90;;;;;;5004867;28;20026;-72
2022/11/01 05:08:26;;;;;;;7.57;2.85;;;17.80;99.90;;;;;;5005666;28;20031;-72
2022/11/01 05:10:54;;;;;;;5.60;2.83;;;17.80;99.90;;;;;;5005652;28;20029;-71
2022/11/01 05:13:19;;;;;;;8.77;2.83;;;17.80;99.90;;;;;;5005411;28;20014;-71
2022/11/01 05:15:47;;;;;;;12.75;3.78;;;17.80;99.90;;;;;;5005229;28;20021;-75
2022/11/01 05:18:13;;;;;;;4.28;2.60;;;17.90;99.90;;;;;;5003577;28;20423;-75
2022/11/01 05:20:41;;;;;;;9.90;2.33;;;17.90;99.90;;;;;;5001703;28;20026;-71
2022/11/01 05:23:10;;;;;;;11.98;2.47;;;17.90;99.90;;;;;;5018845;28;20827;-71
2022/11/01 05:25:36;;;;;;;5.88;2.15;;;18.00;99.90;;;;;;5005125;28;20592;-73
2022/11/01 05:28:10;;;;;;;2.13;1.58;;;18.00;99.90;;;;;;5004218;28;20037;-73
2022/11/01 05:30:36;;;;;;;10.48;1.90;;;18.00;99.90;;;;;;5003609;28;20029;-73
2022/11/01 05:33:04;;;;;;;3.15;1.40;;;18.00;99.90;;;;;;4999922;28;20038;-76
2022/11/01 05:35:33;;;;;;;4.82;1.33;;;18.00;99.90;;;;;;5003985;28;20034;-75
2022/11/01 05:38:00;;;;;;;6.38;1.27;;;18.00;99.90;;;;;;5002683;28;20099;-73
2022/11/01 05:40:29;;;;;;;7.07;1.98;;;17.90;99.90;;;;;;5000723;28;20026;-71
2022/11/01 05:42:56;;;;;;;4.53;1.50;;;17.90;99.90;;;;;;5004522;28;20034;-72
2022/11/01 05:45:21;;;;;;;3.63;1.35;;;17.80;99.90;;;;;;5009463;28;20365;-71
2022/11/01 05:47:47;;;;;;;5.80;1.40;;;17.80;99.90;;;;;;5003639;28;20022;-72
2022/11/01 05:50:14;;;;;;;6.00;1.20;;;17.70;99.90;;;;;;5007085;28;20472;-73
2022/11/01 05:52:41;;;;;;;8.95;1.45;;;17.50;99.90;;;;;;5005774;28;20014;-72
2022/11/01 05:55:07;;;;;;;6.63;0.73;;;17.40;99.90;;;;;;5002212;28;20030;-72
2022/11/01 05:57:33;;;;;;;5.03;1.00;;;17.40;99.90;;;;;;5000943;28;20095;-77
2022/11/01 05:59:59;;;;;;;7.68;1.00;;;17.40;99.90;;;;;;5000235;28;20030;-72
2022/11/01 06:02:25;;;;;;;7.40;0.98;;;17.40;99.90;;;;;;5005112;28;20038;-71
2022/11/01 06:04:51;;;;;;;2.15;0.77;;;17.20;99.90;;;;;;5006405;28;20030;-72
2022/11/01 06:07:17;;;;;;;4.28;1.08;;;17.20;99.90;;;;;;5004701;28;20030;-72
2022/11/01 06:09:43;;;;;;;4.97;0.95;;;17.10;99.90;;;;;;5002973;28;20026;-72
2022/11/01 06:12:08;;;;;;;1.85;1.00;;;17.10;99.90;;;;;;5005265;28;20095;-75
2022/11/01 06:14:34;;;;;;;3.08;0.80;;;17.10;99.90;;;;;;5004733;28;20025;-72
2022/11/01 06:16:59;;;;;;;1.85;0.73;;;17.00;99.90;;;;;;5003965;28;20108;-74
2022/11/01 06:19:25;;;;;;;5.45;1.63;;;16.90;99.90;;;;;;5017822;28;20026;-71
2022/11/01 06:21:51;;;;;;;2.42;1.02;;;16.80;99.90;;;;;;5004961;28;20056;-75
2022/11/01 06:24:16;;;;;;;3.60;1.00;;;16.70;99.90;;;;;;5004008;28;20026;-73
2022/11/01 06:26:42;;;;;;;1.75;0.70;;;16.70;99.90;;;;;;5004926;28;20046;-75
2022/11/01 06:29:08;;;;;;;5.75;1.00;;;16.70;99.90;;;;;;5006048;28;20453;-72
2022/11/01 06:31:36;;;;;;;2.60;1.25;;;16.60;99.90;;;;;;5005375;28;20019;-72
2022/11/01 06:34:01;;;;;;;6.22;0.70;;;16.50;99.90;;;;;;5004073;28;20118;-71
2022/11/01 06:36:27;;;;;;;4.72;0.60;;;16.60;99.90;;;;;;5005543;28;20404;-76
2022/11/01 06:38:53;;;;;;;1.48;0.50;;;16.50;99.90;;;;;;5001497;28;20053;-71
2022/11/01 06:41:21;;;;;;;4.72;1.02;;;16.40;99.90;;;;;;5004781;28;20345;-72
2022/11/01 06:43:51;;;;;;;3.05;0.80;;;16.40;99.90;;;;;;5005269;28;20088;-73
2022/11/01 06:46:17;;;;;;;4.60;0.90;;;16.30;99.90;;;;;;5021582;28;20351;-75
2022/11/01 06:48:47;;;;;;;1.25;0.85;;;16.30;99.90;;;;;;5006381;28;20025;-73
2022/11/01 06:51:15;;;;;;;3.35;0.80;;;16.20;99.90;;;;;;5003859;28;20084;-75
2022/11/01 06:53:43;;;;;;;2.75;0.73;;;16.20;99.90;;;;;;5003528;28;20036;-72
2022/11/01 06:56:09;;;;;;;3.60;0.77;;;16.10;99.90;;;;;;5002014;28;20459;-75
2022/11/01 06:58:34;;;;;;;1.05;0.68;;;16.10;99.90;;;;;;5003820;28;20053;-75
2022/11/01 07:01:01;;;;;;;6.43;0.73;;;16.10;99.90;;;;;;5007923;28;20064;-73
2022/11/01 07:03:29;;;;;;;2.92;0.82;;;16.00;99.90;;;;;;5007555;28;20022;-73
2022/11/01 07:05:59;;;;;;;4.15;1.00;;;16.00;99.90;;;;;;5008096;28;20105;-75
2022/11/01 07:08:25;;;;;;;5.03;0.90;;;16.00;99.90;;;;;;5005796;28;20033;-75
2022/11/01 07:10:50;;;;;;;3.25;0.73;;;15.90;99.90;;;;;;5005922;28;20022;-75
2022/11/01 07:13:16;;;;;;;2.33;0.80;;;15.90;99.90;;;;;;5006411;28;20030;-76
2022/11/01 07:15:41;;;;;;;4.97;0.63;;;15.90;99.90;;;;;;5012342;28;20083;-75
2022/11/01 07:18:07;;;;;;;2.40;0.80;;;15.80;99.90;;;;;;5011187;28;20023;-75
2022/11/01 07:20:39;;;;;;;2.40;0.80;;;15.90;99.90;;;;;;5021507;28;20022;-76
2022/11/01 07:23:07;;;;;;;10.60;1.73;;;15.80;99.90;;;;;;5005028;28;20087;-74
2022/11/01 07:25:35;;;;;;;3.00;0.65;;;15.80;99.90;;;;;;5019648;28;20272;-74
2022/11/01 07:28:03;;;;;;;3.25;0.68;;;15.70;99.90;;;;;;5023413;28;20018;-75
2022/11/01 07:30:31;;;;;;;2.08;0.60;;;15.70;99.90;;;;;;5005486;28;20018;-75
2022/11/01 07:32:58;;;;;;;1.95;0.65;;;15.70;99.90;;;;;;5027228;28;20050;-74
2022/11/01 07:35:25;;;;;;;3.42;0.60;;;15.70;99.90;;;;;;5012071;28;20100;-71
2022/11/01 07:37:54;;;;;;;6.72;0.90;;;15.60;99.90;;;;;;5004383;28;20026;-76
2022/11/01 07:40:26;;;;;;;2.85;0.82;;;15.70;99.90;;;;;;5008607;28;20128;-75
2022/11/01 07:42:57;;;;;;;3.95;0.60;;;15.70;99.90;;;;;;5008970;28;20022;-72
2022/11/01 07:45:23;;;;;;;5.03;0.60;;;15.60;99.90;;;;;;5008159;28;20022;-71
2022/11/01 07:47:52;;;;;;;3.42;0.93;;;15.60;99.90;;;;;;5012410;28;20030;-72
2022/11/01 07:50:18;;;;;;;3.30;0.68;;;15.70;99.90;;;;;;5004685;28;20026;-75
2022/11/01 07:52:44;;;;;;;3.88;0.85;;;15.60;99.90;;;;;;5003482;28;20474;-75
2022/11/01 07:55:10;;;;;;;2.97;0.55;;;15.70;99.90;;;;;;5008836;28;20022;-75
2022/11/01 07:57:40;;;;;;;6.78;1.02;;;15.70;99.90;;;;;;5005040;28;20037;-75
2022/11/01 08:00:08;;;;;;;2.97;0.63;;;15.60;99.90;;;;;;5014238;28;20366;-73
2022/11/01 08:02:34;;;;;;;2.55;0.60;;;15.70;99.90;;;;;;5017050;28;20108;-74
2022/11/01 08:04:59;;;;;;;9.73;1.40;;;15.70;99.90;;;;;;5008486;28;20033;-74
2022/11/01 08:07:25;;;;;;;5.68;0.80;;;15.70;99.90;;;;;;5010873;28;20022;-72
2022/11/01 08:09:50;;;;;;;6.22;1.13;;;15.60;99.90;;;;;;5008909;28;20022;-74
2022/11/01 08:12:16;;;;;;;6.40;2.20;;;15.60;99.90;;;;;;5007010;28;20112;-73
2022/11/01 08:14:42;;;;;;;34.28;14.70;;;15.80;99.90;;;;;;5019259;28;20041;-73
2022/11/01 08:17:07;;;;;;;6.53;1.42;;;15.80;99.90;;;;;;5005294;28;20040;-77
2022/11/01 08:19:33;;;;;;;8.57;1.00;;;15.70;99.80;;;;;;5005640;28;20049;-72
2022/11/01 08:22:02;;;;;;;5.10;0.80;;;15.70;99.70;;;;;;5005699;28;20054;-74
2022/11/01 08:24:27;;;;;;;7.00;1.38;;;15.80;99.80;;;;;;5009433;28;20037;-72
2022/11/01 08:26:53;;;;;;;10.95;1.30;;;15.70;99.90;;;;;;5010647;28;20022;-72
2022/11/01 08:29:19;;;;;;;6.28;1.48;;;15.80;99.70;;;;;;5008201;28;20538;-72
2022/11/01 08:31:46;;;;;;;3.97;0.85;;;15.80;99.90;;;;;;5002824;28;20116;-72
2022/11/01 08:34:14;;;;;;;7.40;0.95;;;15.70;99.90;;;;;;5004026;28;20026;-73
2022/11/01 08:36:39;;;;;;;11.70;1.30;;;15.80;99.40;;;;;;5006928;28;20026;-70
2022/11/01 08:39:05;;;;;;;7.47;0.98;;;15.70;98.80;;;;;;5003727;28;20435;-72
2022/11/01 08:41:31;;;;;;;6.40;1.15;;;15.70;98.40;;;;;;5007335;28;20026;-72
2022/11/01 08:43:57;;;;;;;6.97;1.48;;;15.80;98.80;;;;;;5006664;28;20026;-72
2022/11/01 08:46:28;;;;;;;10.70;1.25;;;15.90;99.00;;;;;;5006030;28;20023;-72
2022/11/01 08:48:58;;;;;;;4.20;1.50;;;15.80;98.50;;;;;;5010128;28;20022;-73
2022/11/01 08:51:25;;;;;;;10.00;1.48;;;16.00;98.50;;;;;;5005553;28;20096;-73
2022/11/01 08:53:57;;;;;;;12.43;1.38;;;15.90;97.90;;;;;;5005021;28;20028;-73
2022/11/01 08:56:23;;;;;;;9.75;1.52;;;15.90;97.70;;;;;;5001644;28;20018;-72
2022/11/01 08:58:56;;;;;;;5.68;1.17;;;15.90;97.80;;;;;;5005372;28;20404;-73
2022/11/01 09:01:28;;;;;;;48.22;15.25;;;15.80;97.60;;;;;;5006116;28;20053;-77
2022/11/01 09:03:57;;;;;;;6.72;1.40;;;15.80;97.10;;;;;;5007140;28;20336;-75
2022/11/01 09:06:24;;;;;;;8.63;1.13;;;16.00;97.30;;;;;;5004425;28;20077;-76
2022/11/01 09:08:52;;;;;;;13.07;1.45;;;16.00;96.90;;;;;;5003181;28;20340;-75
2022/11/01 09:11:18;;;;;;;9.00;1.17;;;16.10;97.00;;;;;;5000707;28;20022;-73
2022/11/01 09:13:44;;;;;;;14.15;1.65;;;16.00;96.60;;;;;;5005714;28;20022;-78
2022/11/01 09:16:10;;;;;;;11.88;1.42;;;16.10;96.80;;;;;;5007359;28;20036;-76
2022/11/01 09:18:38;;;;;;;6.70;1.25;;;16.20;96.60;;;;;;5007975;28;20100;-74
2022/11/01 09:21:05;;;;;;;6.32;1.38;;;16.10;96.30;;;;;;5002823;28;20046;-76
2022/11/01 09:23:38;;;;;;;11.70;1.83;;;16.10;96.30;;;;;;5003318;28;20022;-72
2022/11/01 09:26:06;;;;;;;19.42;1.33;;;16.10;96.30;;;;;;5007427;28;20092;-74
2022/11/01 09:28:32;;;;;;;11.13;1.70;;;16.20;96.00;;;;;;5005100;28;20104;-74
2022/11/01 09:31:06;;;;;;;13.18;1.50;;;16.40;96.30;;;;;;5005826;28;20121;-76
2022/11/01 09:33:34;;;;;;;11.00;1.73;;;16.40;95.50;;;;;;5008498;28;20022;-74
2022/11/01 09:36:01;;;;;;;11.48;2.28;;;16.50;95.40;;;;;;5004733;28;20507;-71
2022/11/01 09:38:27;;;;;;;7.50;1.38;;;16.30;95.50;;;;;;5005476;28;20034;-74
2022/11/01 09:41:15;;;;;;;8.13;1.52;;;16.50;95.50;;;;;;5003117;28;20028;-75
2022/11/01 09:43:43;;;;;;;10.30;1.50;;;16.60;95.00;;;;;;4996945;28;20033;-73
2022/11/01 09:46:16;;;;;;;10.52;1.58;;;16.50;95.00;;;;;;5006518;28;20036;-74
2022/11/01 09:48:45;;;;;;;12.05;2.17;;;16.80;95.20;;;;;;5004954;28;20040;-73
2022/11/01 09:51:20;;;;;;;14.57;1.35;;;17.20;95.20;;;;;;5006985;28;20045;-75
2022/11/01 09:53:49;;;;;;;12.32;1.35;;;17.20;94.40;;;;;;5005407;28;20037;-72
2022/11/01 09:56:32;;;;;;;9.93;1.45;;;17.70;94.30;;;;;;5006255;28;20021;-73
2022/11/01 09:59:26;;;;;;;11.98;1.70;;;18.20;93.20;;;;;;5016302;28;20347;-75
2022/11/01 10:02:18;;;;;;;10.20;1.90;;;18.30;92.80;;;;;;4982916;28;20037;-73
2022/11/01 10:04:46;;;;;;;12.48;1.90;;;18.50;93.20;;;;;;4997844;28;20022;-74
2022/11/01 10:07:50;;;;;;;8.77;1.30;;;18.50;92.40;;;;;;5005175;28;20018;-74
2022/11/01 10:10:23;;;;;;;7.63;0.90;;;18.20;91.80;;;;;;5014236;28;20030;-72
2022/11/01 10:13:03;;;;;;;5.95;1.08;;;17.80;92.00;;;;;;5007463;28;20029;-75
2022/11/01 10:16:10;;;;;;;7.63;1.25;;;17.90;92.50;;;;;;5002244;28;20354;-74
2022/11/01 10:19:17;;;;;;;13.35;1.75;;;17.90;92.50;;;;;;5005712;28;20033;-75
2022/11/01 10:21:47;;;;;;;11.15;1.65;;;18.00;91.90;;;;;;5003182;28;20038;-73
2022/11/01 10:24:36;;;;;;;9.60;1.20;;;18.10;91.80;;;;;;5004487;28;20026;-72
2022/11/01 10:27:17;;;;;;;6.18;1.20;;;18.20;91.70;;;;;;5004913;28;20481;-74
2022/11/01 10:30:08;;;;;;;8.63;1.73;;;18.40;91.80;;;;;;5004778;28;20034;-71
2022/11/01 10:33:05;;;;;;;10.07;2.20;;;18.60;91.60;;;;;;5004019;28;20022;-74
2022/11/01 10:35:36;;;;;;;10.98;2.17;;;18.90;90.70;;;;;;4995342;28;20384;-75
2022/11/01 10:38:21;;;;;;;14.55;2.20;;;19.00;90.30;;;;;;5011345;28;20108;-71
2022/11/01 10:40:55;;;;;;;4.72;1.80;;;19.10;90.50;;;;;;5006655;28;20127;-73
2022/11/01 10:43:24;;;;;;;8.90;1.90;;;19.20;89.20;;;;;;5007096;28;20355;-73
2022/11/01 10:45:54;;;;;;;6.15;1.52;;;18.90;89.50;;;;;;5009850;28;20035;-72
2022/11/01 10:48:33;;;;;;;13.25;2.15;;;18.80;89.80;;;;;;5005204;28;20030;-72
2022/11/01 10:51:02;;;;;;;14.45;2.33;;;19.00;89.70;;;;;;5007827;28;20021;-72
2022/11/01 10:53:33;;;;;;;8.32;1.13;;;18.80;89.90;;;;;;5006587;28;20063;-71
2022/11/01 10:56:07;;;;;;;10.75;1.50;;;19.00;90.10;;;;;;5008891;28;20018;-75
2022/11/01 10:58:50;;;;;;;15.52;1.92;;;19.00;90.30;;;;;;5005839;28;20447;-75
2022/11/01 11:01:21;;;;;;;8.77;1.92;;;19.00;90.10;;;;;;5009298;28;20037;-75
2022/11/01 11:03:51;;;;;;;12.05;1.83;;;18.80;90.30;;;;;;5010461;28;20022;-75
2022/11/01 11:06:18;;;;;;;12.55;2.65;;;18.90;90.20;;;;;;5007427;28;20018;-74
2022/11/01 11:08:50;;;;;;;12.57;2.00;;;18.80;90.30;;;;;;5010567;28;20475;-71
2022/11/01 11:11:24;;;;;;;12.88;1.73;;;18.80;90.60;;;;;;5007485;28;20048;-74
2022/11/01 11:13:55;;;;;;;11.77;2.05;;;19.00;90.50;;;;;;5010050;28;20041;-74
2022/11/01 11:16:34;;;;;;;8.75;1.70;;;18.80;90.10;;;;;;5005051;28;20129;-76
2022/11/01 11:19:18;;;;;;;8.65;1.73;;;18.80;90.30;;;;;;5008074;28;20034;-74
2022/11/01 11:21:48;;;;;;;8.15;1.35;;;18.90;90.20;;;;;;5007218;28;20057;-74
2022/11/01 11:24:29;;;;;;;10.82;2.08;;;18.80;90.40;;;;;;5009247;28;20431;-73
2022/11/01 11:26:56;;;;;;;7.43;1.65;;;18.90;90.30;;;;;;5010559;28;20029;-75
2022/11/01 11:29:36;;;;;;;8.80;1.33;;;18.90;90.10;;;;;;5007780;28;20105;-73
2022/11/01 11:32:07;;;;;;;15.35;2.05;;;18.70;90.40;;;;;;5007883;28;20021;-74
2022/11/01 11:34:37;;;;;;;71.60;25.45;;;18.80;90.50;;;;;;5002897;28;20385;-76
2022/11/01 11:37:05;;;;;;;13.45;2.10;;;19.00;90.30;;;;;;5006913;28;20025;-76
2022/11/01 11:39:37;;;;;;;8.88;1.67;;;19.00;90.50;;;;;;5008614;28;20014;-72
2022/11/01 11:42:13;;;;;;;12.02;2.13;;;19.00;90.20;;;;;;5007883;28;20061;-75
2022/11/01 11:44:48;;;;;;;17.58;2.03;;;19.30;90.10;;;;;;5010745;28;20113;-75
2022/11/01 11:47:23;;;;;;;9.85;2.22;;;19.30;89.80;;;;;;5006190;28;20089;-74
2022/11/01 11:49:58;;;;;;;11.75;1.80;;;19.20;89.40;;;;;;5009492;28;20084;-75
2022/11/01 11:52:38;;;;;;;9.45;1.65;;;19.00;89.90;;;;;;5007869;28;20740;-72
2022/11/01 11:55:23;;;;;;;8.10;1.45;;;19.10;89.80;;;;;;5012921;28;20108;-76
2022/11/01 11:57:51;;;;;;;11.15;1.60;;;19.20;89.40;;;;;;5018456;28;20095;-75
2022/11/01 12:00:22;;;;;;;9.68;1.17;;;19.30;89.10;;;;;;5004848;28;20030;-74
2022/11/01 12:02:54;;;;;;;8.40;1.58;;;19.10;89.00;;;;;;5009075;28;20026;-72
2022/11/01 12:05:25;;;;;;;8.98;1.80;;;19.30;88.80;;;;;;5007496;28;20025;-75
2022/11/01 12:07:55;;;;;;;15.43;1.85;;;19.10;88.70;;;;;;5005287;28;20058;-73
2022/11/01 12:10:35;;;;;;;7.30;1.73;;;19.10;88.60;;;;;;5005301;28;20042;-73
2022/11/01 12:13:03;;;;;;;11.13;1.42;;;19.30;88.00;;;;;;5001567;28;20026;-73
2022/11/01 12:15:33;;;;;;;13.40;2.03;;;19.30;87.40;;;;;;5007566;28;20030;-72
2022/11/01 12:18:28;;;;;;;13.70;1.52;;;19.50;87.60;;;;;;5008413;28;20030;-74
2022/11/01 12:20:57;;;;;;;8.10;1.95;;;19.30;87.20;;;;;;4991033;28;20357;-72
2022/11/01 12:23:29;;;;;;;10.25;1.67;;;19.40;87.20;;;;;;5006683;28;20100;-74
2022/11/01 12:25:58;;;;;;;7.82;1.30;;;19.70;86.70;;;;;;5000204;28;20060;-76
2022/11/01 12:28:35;;;;;;;9.20;1.50;;;19.90;86.20;;;;;;5008671;28;20034;-74
2022/11/01 12:31:20;;;;;;;12.57;2.03;;;19.70;86.10;;;;;;5007296;28;20034;-74
2022/11/01 12:33:53;;;;;;;5.35;1.45;;;19.70;85.60;;;;;;5004304;28;20022;-74
2022/11/01 12:36:29;;;;;;;10.35;1.75;;;19.80;85.50;;;;;;5008428;28;20022;-75
2022/11/01 12:39:26;;;;;;;8.23;1.55;;;19.90;85.40;;;;;;5010993;28;20033;-74
2022/11/01 12:41:59;;;;;;;10.85;2.00;;;20.20;84.50;;;;;;4984124;28;20145;-69
2022/11/01 12:44:47;;;;;;;12.23;4.25;;;20.30;84.00;;;;;;5000052;28;20416;-73
2022/11/01 12:47:31;;;;;;;17.35;5.50;;;20.60;84.40;;;;;;5006664;28;20567;-74
2022/11/01 12:50:05;;;;;;;8.45;1.60;;;20.70;82.30;;;;;;5019300;28;20061;-75
2022/11/01 12:52:45;;;;;;;9.25;1.35;;;20.50;81.90;;;;;;5005923;28;20451;-73
2022/11/01 12:55:11;;;;;;;8.02;2.03;;;20.50;82.20;;;;;;5016971;28;20502;-75
2022/11/01 12:57:40;;;;;;;7.70;1.50;;;22.10;80.80;;;;;;5007414;28;20026;-75
2022/11/01 13:00:06;;;;;;;10.05;1.77;;;24.00;75.00;;;;;;5007771;28;20077;-74
2022/11/01 13:02:53;;;;;;;10.52;2.25;;;24.90;70.50;;;;;;5010455;28;20033;-74
2022/11/01 13:05:41;;;;;;;7.03;1.33;;;28.20;58.60;;;;;;5012336;28;20026;-78
2022/11/01 13:08:27;;;;;;;5.68;1.23;;;29.50;53.60;;;;;;5006905;28;20038;-74
2022/11/01 13:11:00;;;;;;;6.10;1.35;;;32.00;48.80;;;;;;5008146;28;20034;-73